sensor_id;sensor_type;location;lat;lon;timestamp;P1;durP1;ratioP1;P2;durP2;ratioP2
40609;SDS011;26316;55.976;37.140;2023-03-01T00:01:12;2.90;;;1.05;;
40609;SDS011;26316;55.976;37.140;2023-03-01T00:03:39;1.90;;;1.00;;
40609;SDS011;26316;55.976;37.140;2023-03-01T00:06:05;1.63;;;0.90;;
40609;SDS011;26316;55.976;37.140;2023-03-01T00:08:31;2.30;;;0.90;;
40609;SDS011;26316;55.976;37.140;2023-03-01T00:11:05;1.65;;;0.90;;
40609;SDS011;26316;55.976;37.140;2023-03-01T00:13:34;1.33;;;0.75;;
40609;SDS011;26316;55.976;37.140;2023-03-01T00:16:04;2.35;;;1.00;;
40609;SDS011;26316;55.976;37.140;2023-03-01T00:18:31;2.15;;;0.90;;
40609;SDS011;26316;55.976;37.140;2023-03-01T00:20:57;2.10;;;1.30;;
40609;SDS011;26316;55.976;37.140;2023-03-01T00:23:23;2.72;;;1.10;;
40609;SDS011;26316;55.976;37.140;2023-03-01T00:25:49;1.77;;;1.10;;
40609;SDS011;26316;55.976;37.140;2023-03-01T00:28:16;2.13;;;1.15;;
40609;SDS011;26316;55.976;37.140;2023-03-01T00:30:41;1.70;;;1.10;;
40609;SDS011;26316;55.976;37.140;2023-03-01T00:33:07;5.93;;;1.30;;
40609;SDS011;26316;55.976;37.140;2023-03-01T00:35:33;2.47;;;1.27;;
40609;SDS011;26316;55.976;37.140;2023-03-01T00:37:59;2.55;;;0.90;;
40609;SDS011;26316;55.976;37.140;2023-03-01T00:40:25;1.95;;;1.10;;
40609;SDS011;26316;55.976;37.140;2023-03-01T00:42:52;1.80;;;1.38;;
40609;SDS011;26316;55.976;37.140;2023-03-01T00:45:18;1.90;;;0.93;;
40609;SDS011;26316;55.976;37.140;2023-03-01T00:47:43;2.03;;;1.48;;
40609;SDS011;26316;55.976;37.140;2023-03-01T00:50:09;3.97;;;1.30;;
40609;SDS011;26316;55.976;37.140;2023-03-01T00:52:36;3.08;;;1.15;;
40609;SDS011;26316;55.976;37.140;2023-03-01T00:55:02;1.98;;;1.10;;
40609;SDS011;26316;55.976;37.140;2023-03-01T00:57:28;1.73;;;1.02;;
40609;SDS011;26316;55.976;37.140;2023-03-01T00:59:54;4.47;;;1.10;;
40609;SDS011;26316;55.976;37.140;2023-03-01T01:02:19;1.63;;;0.98;;
40609;SDS011;26316;55.976;37.140;2023-03-01T01:04:45;2.35;;;1.42;;
40609;SDS011;26316;55.976;37.140;2023-03-01T01:07:12;1.88;;;1.35;;
40609;SDS011;26316;55.976;37.140;2023-03-01T01:09:38;1.45;;;1.20;;
40609;SDS011;26316;55.976;37.140;2023-03-01T01:12:04;3.40;;;1.13;;
40609;SDS011;26316;55.976;37.140;2023-03-01T01:14:30;1.85;;;1.08;;
40609;SDS011;26316;55.976;37.140;2023-03-01T01:16:56;2.55;;;1.20;;
40609;SDS011;26316;55.976;37.140;2023-03-01T01:19:22;1.90;;;1.10;;
40609;SDS011;26316;55.976;37.140;2023-03-01T01:21:48;2.40;;;1.00;;
40609;SDS011;26316;55.976;37.140;2023-03-01T01:24:14;1.60;;;1.10;;
40609;SDS011;26316;55.976;37.140;2023-03-01T01:26:41;3.10;;;1.17;;
40609;SDS011;26316;55.976;37.140;2023-03-01T01:29:07;1.40;;;0.82;;
40609;SDS011;26316;55.976;37.140;2023-03-01T01:31:34;2.92;;;1.10;;
40609;SDS011;26316;55.976;37.140;2023-03-01T01:34:01;2.28;;;0.98;;
40609;SDS011;26316;55.976;37.140;2023-03-01T01:36:29;2.05;;;1.00;;
40609;SDS011;26316;55.976;37.140;2023-03-01T01:38:54;1.50;;;1.00;;
40609;SDS011;26316;55.976;37.140;2023-03-01T01:41:20;2.50;;;1.00;;
40609;SDS011;26316;55.976;37.140;2023-03-01T01:43:48;1.70;;;0.80;;
40609;SDS011;26316;55.976;37.140;2023-03-01T01:46:50;1.83;;;1.00;;
40609;SDS011;26316;55.976;37.140;2023-03-01T01:49:18;8.55;;;1.10;;
40609;SDS011;26316;55.976;37.140;2023-03-01T01:51:49;5.97;;;1.77;;
40609;SDS011;26316;55.976;37.140;2023-03-01T01:54:27;1.85;;;1.30;;
40609;SDS011;26316;55.976;37.140;2023-03-01T01:57:03;1.70;;;1.48;;
40609;SDS011;26316;55.976;37.140;2023-03-01T01:59:33;2.72;;;1.70;;
40609;SDS011;26316;55.976;37.140;2023-03-01T02:01:59;1.27;;;1.13;;
40609;SDS011;26316;55.976;37.140;2023-03-01T02:04:28;1.40;;;1.05;;
40609;SDS011;26316;55.976;37.140;2023-03-01T02:06:57;2.35;;;1.00;;
40609;SDS011;26316;55.976;37.140;2023-03-01T02:09:28;3.17;;;1.15;;
40609;SDS011;26316;55.976;37.140;2023-03-01T02:11:55;3.05;;;1.38;;
40609;SDS011;26316;55.976;37.140;2023-03-01T02:14:21;1.88;;;1.10;;
40609;SDS011;26316;55.976;37.140;2023-03-01T02:16:47;2.03;;;1.33;;
40609;SDS011;26316;55.976;37.140;2023-03-01T02:19:39;2.92;;;1.42;;
40609;SDS011;26316;55.976;37.140;2023-03-01T02:24:47;2.55;;;1.10;;
40609;SDS011;26316;55.976;37.140;2023-03-01T02:27:22;1.60;;;1.00;;
40609;SDS011;26316;55.976;37.140;2023-03-01T02:29:52;1.83;;;1.33;;
40609;SDS011;26316;55.976;37.140;2023-03-01T02:32:17;2.58;;;1.35;;
40609;SDS011;26316;55.976;37.140;2023-03-01T02:34:53;1.83;;;0.80;;
40609;SDS011;26316;55.976;37.140;2023-03-01T02:37:20;1.65;;;0.95;;
40609;SDS011;26316;55.976;37.140;2023-03-01T02:39:53;2.25;;;1.10;;
40609;SDS011;26316;55.976;37.140;2023-03-01T02:42:27;4.25;;;0.88;;
40609;SDS011;26316;55.976;37.140;2023-03-01T02:44:57;1.90;;;0.93;;
40609;SDS011;26316;55.976;37.140;2023-03-01T02:47:22;1.58;;;1.00;;
40609;SDS011;26316;55.976;37.140;2023-03-01T02:49:48;2.92;;;1.10;;
40609;SDS011;26316;55.976;37.140;2023-03-01T02:55:11;1.60;;;1.00;;
40609;SDS011;26316;55.976;37.140;2023-03-01T02:57:39;2.25;;;1.10;;
40609;SDS011;26316;55.976;37.140;2023-03-01T03:00:08;1.65;;;0.93;;
40609;SDS011;26316;55.976;37.140;2023-03-01T03:02:36;1.75;;;0.82;;
40609;SDS011;26316;55.976;37.140;2023-03-01T03:07:36;2.05;;;1.13;;
40609;SDS011;26316;55.976;37.140;2023-03-01T03:10:03;2.00;;;1.23;;
40609;SDS011;26316;55.976;37.140;2023-03-01T03:12:30;3.03;;;1.30;;
40609;SDS011;26316;55.976;37.140;2023-03-01T03:14:56;2.97;;;1.30;;
40609;SDS011;26316;55.976;37.140;2023-03-01T03:17:22;2.65;;;1.50;;
40609;SDS011;26316;55.976;37.140;2023-03-01T03:19:48;3.95;;;1.73;;
40609;SDS011;26316;55.976;37.140;2023-03-01T03:22:13;3.03;;;1.83;;
40609;SDS011;26316;55.976;37.140;2023-03-01T03:24:39;2.63;;;2.00;;
40609;SDS011;26316;55.976;37.140;2023-03-01T03:27:05;3.38;;;1.90;;
40609;SDS011;26316;55.976;37.140;2023-03-01T03:29:31;3.40;;;1.73;;
40609;SDS011;26316;55.976;37.140;2023-03-01T03:31:57;3.55;;;1.95;;
40609;SDS011;26316;55.976;37.140;2023-03-01T03:34:23;2.70;;;1.88;;
40609;SDS011;26316;55.976;37.140;2023-03-01T03:36:52;2.05;;;1.83;;
40609;SDS011;26316;55.976;37.140;2023-03-01T03:39:22;2.92;;;1.60;;
40609;SDS011;26316;55.976;37.140;2023-03-01T03:41:49;3.55;;;1.73;;
40609;SDS011;26316;55.976;37.140;2023-03-01T03:44:14;4.75;;;2.20;;
40609;SDS011;26316;55.976;37.140;2023-03-01T03:46:40;2.95;;;1.52;;
40609;SDS011;26316;55.976;37.140;2023-03-01T03:49:05;2.80;;;1.40;;
40609;SDS011;26316;55.976;37.140;2023-03-01T03:51:31;1.90;;;1.48;;
40609;SDS011;26316;55.976;37.140;2023-03-01T03:53:56;3.05;;;1.67;;
40609;SDS011;26316;55.976;37.140;2023-03-01T03:56:22;2.05;;;1.33;;
40609;SDS011;26316;55.976;37.140;2023-03-01T03:58:51;2.60;;;1.50;;
40609;SDS011;26316;55.976;37.140;2023-03-01T04:01:17;1.70;;;1.45;;
40609;SDS011;26316;55.976;37.140;2023-03-01T04:03:43;4.32;;;1.90;;
40609;SDS011;26316;55.976;37.140;2023-03-01T04:06:12;3.80;;;1.83;;
40609;SDS011;26316;55.976;37.140;2023-03-01T04:08:39;4.15;;;1.58;;
40609;SDS011;26316;55.976;37.140;2023-03-01T04:11:05;2.10;;;1.52;;
40609;SDS011;26316;55.976;37.140;2023-03-01T04:13:50;3.38;;;1.70;;
40609;SDS011;26316;55.976;37.140;2023-03-01T04:16:16;2.38;;;1.60;;
40609;SDS011;26316;55.976;37.140;2023-03-01T04:18:43;2.85;;;1.50;;
40609;SDS011;26316;55.976;37.140;2023-03-01T04:21:09;3.92;;;1.63;;
40609;SDS011;26316;55.976;37.140;2023-03-01T04:23:35;2.25;;;1.60;;
40609;SDS011;26316;55.976;37.140;2023-03-01T04:26:01;5.55;;;1.80;;
40609;SDS011;26316;55.976;37.140;2023-03-01T04:28:28;2.30;;;1.45;;
40609;SDS011;26316;55.976;37.140;2023-03-01T04:30:55;3.38;;;1.90;;
40609;SDS011;26316;55.976;37.140;2023-03-01T04:33:22;2.35;;;1.65;;
40609;SDS011;26316;55.976;37.140;2023-03-01T04:35:48;2.40;;;1.70;;
40609;SDS011;26316;55.976;37.140;2023-03-01T04:38:17;2.80;;;1.70;;
40609;SDS011;26316;55.976;37.140;2023-03-01T04:40:43;3.08;;;1.88;;
40609;SDS011;26316;55.976;37.140;2023-03-01T04:43:09;3.08;;;1.73;;
40609;SDS011;26316;55.976;37.140;2023-03-01T04:45:35;4.82;;;1.77;;
40609;SDS011;26316;55.976;37.140;2023-03-01T04:48:01;4.28;;;1.80;;
40609;SDS011;26316;55.976;37.140;2023-03-01T04:50:28;3.20;;;1.77;;
40609;SDS011;26316;55.976;37.140;2023-03-01T04:52:54;3.33;;;2.03;;
40609;SDS011;26316;55.976;37.140;2023-03-01T04:55:19;3.65;;;1.88;;
40609;SDS011;26316;55.976;37.140;2023-03-01T04:57:45;3.30;;;2.08;;
40609;SDS011;26316;55.976;37.140;2023-03-01T05:00:11;3.90;;;2.22;;
40609;SDS011;26316;55.976;37.140;2023-03-01T05:02:52;4.03;;;1.90;;
40609;SDS011;26316;55.976;37.140;2023-03-01T05:05:30;3.30;;;2.15;;
40609;SDS011;26316;55.976;37.140;2023-03-01T05:07:59;3.67;;;1.90;;
40609;SDS011;26316;55.976;37.140;2023-03-01T05:10:27;2.95;;;1.90;;
40609;SDS011;26316;55.976;37.140;2023-03-01T05:12:57;10.75;;;2.10;;
40609;SDS011;26316;55.976;37.140;2023-03-01T05:15:24;4.15;;;1.80;;
40609;SDS011;26316;55.976;37.140;2023-03-01T05:17:51;2.95;;;2.08;;
40609;SDS011;26316;55.976;37.140;2023-03-01T05:20:19;5.45;;;2.20;;
40609;SDS011;26316;55.976;37.140;2023-03-01T05:22:48;4.65;;;1.70;;
40609;SDS011;26316;55.976;37.140;2023-03-01T05:25:14;3.13;;;1.63;;
40609;SDS011;26316;55.976;37.140;2023-03-01T05:27:40;4.05;;;2.08;;
40609;SDS011;26316;55.976;37.140;2023-03-01T05:30:06;2.83;;;1.70;;
40609;SDS011;26316;55.976;37.140;2023-03-01T05:32:39;3.97;;;1.77;;
40609;SDS011;26316;55.976;37.140;2023-03-01T05:35:06;3.92;;;1.80;;
40609;SDS011;26316;55.976;37.140;2023-03-01T05:37:32;2.95;;;1.80;;
40609;SDS011;26316;55.976;37.140;2023-03-01T05:39:57;2.67;;;1.50;;
40609;SDS011;26316;55.976;37.140;2023-03-01T05:42:23;2.90;;;1.77;;
40609;SDS011;26316;55.976;37.140;2023-03-01T05:44:49;3.78;;;1.88;;
40609;SDS011;26316;55.976;37.140;2023-03-01T05:47:14;2.55;;;1.70;;
40609;SDS011;26316;55.976;37.140;2023-03-01T05:49:40;3.05;;;1.67;;
40609;SDS011;26316;55.976;37.140;2023-03-01T05:52:05;3.63;;;2.08;;
40609;SDS011;26316;55.976;37.140;2023-03-01T05:54:31;3.30;;;1.95;;
40609;SDS011;26316;55.976;37.140;2023-03-01T05:56:57;4.97;;;1.77;;
40609;SDS011;26316;55.976;37.140;2023-03-01T05:59:22;3.05;;;1.90;;
40609;SDS011;26316;55.976;37.140;2023-03-01T06:01:48;5.22;;;2.25;;
40609;SDS011;26316;55.976;37.140;2023-03-01T06:04:13;2.83;;;1.50;;
40609;SDS011;26316;55.976;37.140;2023-03-01T06:06:39;2.15;;;1.50;;
40609;SDS011;26316;55.976;37.140;2023-03-01T06:09:05;4.18;;;1.60;;
40609;SDS011;26316;55.976;37.140;2023-03-01T06:11:36;2.25;;;1.40;;
40609;SDS011;26316;55.976;37.140;2023-03-01T06:14:02;2.05;;;1.52;;
40609;SDS011;26316;55.976;37.140;2023-03-01T06:16:28;3.58;;;1.55;;
40609;SDS011;26316;55.976;37.140;2023-03-01T06:18:54;4.03;;;2.00;;
40609;SDS011;26316;55.976;37.140;2023-03-01T06:21:19;4.00;;;1.65;;
40609;SDS011;26316;55.976;37.140;2023-03-01T06:23:45;3.00;;;1.88;;
40609;SDS011;26316;55.976;37.140;2023-03-01T06:26:11;3.83;;;2.13;;
40609;SDS011;26316;55.976;37.140;2023-03-01T06:28:36;2.85;;;1.80;;
40609;SDS011;26316;55.976;37.140;2023-03-01T06:31:02;4.85;;;2.42;;
40609;SDS011;26316;55.976;37.140;2023-03-01T06:33:27;4.00;;;2.15;;
40609;SDS011;26316;55.976;37.140;2023-03-01T06:35:56;3.25;;;1.90;;
40609;SDS011;26316;55.976;37.140;2023-03-01T06:38:22;4.07;;;1.83;;
40609;SDS011;26316;55.976;37.140;2023-03-01T06:40:52;2.60;;;1.88;;
40609;SDS011;26316;55.976;37.140;2023-03-01T06:43:20;5.00;;;2.10;;
40609;SDS011;26316;55.976;37.140;2023-03-01T06:45:46;3.22;;;2.17;;
40609;SDS011;26316;55.976;37.140;2023-03-01T06:48:11;2.63;;;1.75;;
40609;SDS011;26316;55.976;37.140;2023-03-01T06:50:37;2.97;;;2.13;;
40609;SDS011;26316;55.976;37.140;2023-03-01T06:53:02;4.43;;;1.90;;
40609;SDS011;26316;55.976;37.140;2023-03-01T06:55:28;5.93;;;2.47;;
40609;SDS011;26316;55.976;37.140;2023-03-01T06:57:55;5.47;;;2.50;;
40609;SDS011;26316;55.976;37.140;2023-03-01T07:00:22;4.05;;;2.08;;
40609;SDS011;26316;55.976;37.140;2023-03-01T07:02:48;2.75;;;1.80;;
40609;SDS011;26316;55.976;37.140;2023-03-01T07:05:13;4.32;;;2.20;;
40609;SDS011;26316;55.976;37.140;2023-03-01T07:07:39;1.83;;;1.58;;
40609;SDS011;26316;55.976;37.140;2023-03-01T07:10:05;3.15;;;2.10;;
40609;SDS011;26316;55.976;37.140;2023-03-01T07:12:31;2.75;;;1.77;;
40609;SDS011;26316;55.976;37.140;2023-03-01T07:14:57;5.45;;;2.28;;
40609;SDS011;26316;55.976;37.140;2023-03-01T07:17:23;4.45;;;1.92;;
40609;SDS011;26316;55.976;37.140;2023-03-01T07:19:48;4.15;;;2.22;;
40609;SDS011;26316;55.976;37.140;2023-03-01T07:22:14;3.00;;;1.77;;
40609;SDS011;26316;55.976;37.140;2023-03-01T07:24:40;4.50;;;2.08;;
40609;SDS011;26316;55.976;37.140;2023-03-01T07:27:06;3.55;;;1.77;;
40609;SDS011;26316;55.976;37.140;2023-03-01T07:29:32;4.10;;;1.73;;
40609;SDS011;26316;55.976;37.140;2023-03-01T07:31:57;4.85;;;2.10;;
40609;SDS011;26316;55.976;37.140;2023-03-01T07:34:23;3.45;;;1.90;;
40609;SDS011;26316;55.976;37.140;2023-03-01T07:36:49;2.97;;;1.65;;
40609;SDS011;26316;55.976;37.140;2023-03-01T07:39:15;2.75;;;1.55;;
40609;SDS011;26316;55.976;37.140;2023-03-01T07:41:40;4.20;;;1.85;;
40609;SDS011;26316;55.976;37.140;2023-03-01T07:44:06;3.75;;;1.83;;
40609;SDS011;26316;55.976;37.140;2023-03-01T07:46:31;3.92;;;1.98;;
40609;SDS011;26316;55.976;37.140;2023-03-01T07:48:57;2.95;;;1.77;;
40609;SDS011;26316;55.976;37.140;2023-03-01T07:51:23;2.70;;;1.80;;
40609;SDS011;26316;55.976;37.140;2023-03-01T07:53:49;4.13;;;2.03;;
40609;SDS011;26316;55.976;37.140;2023-03-01T07:56:15;3.17;;;1.88;;
40609;SDS011;26316;55.976;37.140;2023-03-01T07:58:43;3.40;;;2.03;;
40609;SDS011;26316;55.976;37.140;2023-03-01T08:01:13;5.55;;;1.77;;
40609;SDS011;26316;55.976;37.140;2023-03-01T08:03:41;1.65;;;1.42;;
40609;SDS011;26316;55.976;37.140;2023-03-01T08:06:10;3.95;;;1.83;;
40609;SDS011;26316;55.976;37.140;2023-03-01T08:08:39;6.88;;;2.03;;
40609;SDS011;26316;55.976;37.140;2023-03-01T08:11:06;3.40;;;1.90;;
40609;SDS011;26316;55.976;37.140;2023-03-01T08:13:32;3.53;;;1.80;;
40609;SDS011;26316;55.976;37.140;2023-03-01T08:16:02;6.22;;;1.80;;
40609;SDS011;26316;55.976;37.140;2023-03-01T08:18:29;3.58;;;1.60;;
40609;SDS011;26316;55.976;37.140;2023-03-01T08:20:55;5.75;;;1.88;;
40609;SDS011;26316;55.976;37.140;2023-03-01T08:23:20;3.40;;;1.90;;
40609;SDS011;26316;55.976;37.140;2023-03-01T08:25:46;2.70;;;1.58;;
40609;SDS011;26316;55.976;37.140;2023-03-01T08:28:12;3.83;;;1.70;;
40609;SDS011;26316;55.976;37.140;2023-03-01T08:30:38;4.25;;;2.00;;
40609;SDS011;26316;55.976;37.140;2023-03-01T08:33:03;5.13;;;1.75;;
40609;SDS011;26316;55.976;37.140;2023-03-01T08:35:29;4.30;;;2.10;;
40609;SDS011;26316;55.976;37.140;2023-03-01T08:37:55;2.63;;;1.90;;
40609;SDS011;26316;55.976;37.140;2023-03-01T08:40:20;3.20;;;1.52;;
40609;SDS011;26316;55.976;37.140;2023-03-01T08:42:46;2.08;;;1.55;;
40609;SDS011;26316;55.976;37.140;2023-03-01T08:45:12;1.90;;;1.30;;
40609;SDS011;26316;55.976;37.140;2023-03-01T08:47:46;3.75;;;1.88;;
40609;SDS011;26316;55.976;37.140;2023-03-01T08:50:11;5.05;;;2.00;;
40609;SDS011;26316;55.976;37.140;2023-03-01T08:52:37;3.35;;;1.95;;
40609;SDS011;26316;55.976;37.140;2023-03-01T08:55:03;3.20;;;2.00;;
40609;SDS011;26316;55.976;37.140;2023-03-01T08:57:29;3.90;;;1.33;;
40609;SDS011;26316;55.976;37.140;2023-03-01T08:59:54;6.28;;;1.77;;
40609;SDS011;26316;55.976;37.140;2023-03-01T09:02:21;2.97;;;1.65;;
40609;SDS011;26316;55.976;37.140;2023-03-01T09:04:46;2.92;;;1.52;;
40609;SDS011;26316;55.976;37.140;2023-03-01T09:07:12;2.88;;;1.70;;
40609;SDS011;26316;55.976;37.140;2023-03-01T09:09:38;2.15;;;1.23;;
40609;SDS011;26316;55.976;37.140;2023-03-01T09:12:03;3.30;;;1.30;;
40609;SDS011;26316;55.976;37.140;2023-03-01T09:14:29;4.88;;;1.52;;
40609;SDS011;26316;55.976;37.140;2023-03-01T09:16:55;4.97;;;1.58;;
40609;SDS011;26316;55.976;37.140;2023-03-01T09:19:20;4.15;;;1.60;;
40609;SDS011;26316;55.976;37.140;2023-03-01T09:21:46;6.00;;;1.20;;
40609;SDS011;26316;55.976;37.140;2023-03-01T09:24:18;2.85;;;1.42;;
40609;SDS011;26316;55.976;37.140;2023-03-01T09:26:48;3.22;;;0.80;;
40609;SDS011;26316;55.976;37.140;2023-03-01T09:29:15;2.00;;;1.05;;
40609;SDS011;26316;55.976;37.140;2023-03-01T09:31:41;3.17;;;1.20;;
40609;SDS011;26316;55.976;37.140;2023-03-01T09:34:08;3.70;;;1.30;;
40609;SDS011;26316;55.976;37.140;2023-03-01T09:36:34;2.63;;;1.10;;
40609;SDS011;26316;55.976;37.140;2023-03-01T09:39:00;1.92;;;0.98;;
40609;SDS011;26316;55.976;37.140;2023-03-01T09:41:33;2.70;;;1.15;;
40609;SDS011;26316;55.976;37.140;2023-03-01T09:46:48;3.67;;;1.20;;
40609;SDS011;26316;55.976;37.140;2023-03-01T09:49:24;1.55;;;1.10;;
40609;SDS011;26316;55.976;37.140;2023-03-01T09:54:46;6.38;;;1.05;;
40609;SDS011;26316;55.976;37.140;2023-03-01T09:57:19;3.97;;;1.10;;
40609;SDS011;26316;55.976;37.140;2023-03-01T10:10:36;1.90;;;1.10;;
40609;SDS011;26316;55.976;37.140;2023-03-01T10:13:07;3.20;;;1.30;;
40609;SDS011;26316;55.976;37.140;2023-03-01T10:16:00;2.40;;;0.93;;
40609;SDS011;26316;55.976;37.140;2023-03-01T10:18:48;1.92;;;1.00;;
40609;SDS011;26316;55.976;37.140;2023-03-01T10:23:53;4.10;;;1.13;;
40609;SDS011;26316;55.976;37.140;2023-03-01T10:29:06;2.05;;;0.90;;
40609;SDS011;26316;55.976;37.140;2023-03-01T10:31:54;3.22;;;1.05;;
40609;SDS011;26316;55.976;37.140;2023-03-01T10:34:37;3.25;;;1.15;;
40609;SDS011;26316;55.976;37.140;2023-03-01T10:37:11;2.75;;;1.20;;
40609;SDS011;26316;55.976;37.140;2023-03-01T10:39:41;5.00;;;1.30;;
40609;SDS011;26316;55.976;37.140;2023-03-01T10:42:30;3.00;;;1.15;;
40609;SDS011;26316;55.976;37.140;2023-03-01T10:44:57;3.35;;;1.20;;
40609;SDS011;26316;55.976;37.140;2023-03-01T10:47:41;2.40;;;0.95;;
40609;SDS011;26316;55.976;37.140;2023-03-01T10:50:17;3.00;;;0.95;;
40609;SDS011;26316;55.976;37.140;2023-03-01T10:52:55;3.50;;;1.15;;
40609;SDS011;26316;55.976;37.140;2023-03-01T11:03:19;2.70;;;1.00;;
40609;SDS011;26316;55.976;37.140;2023-03-01T11:08:47;2.55;;;1.23;;
40609;SDS011;26316;55.976;37.140;2023-03-01T11:11:30;1.65;;;0.90;;
40609;SDS011;26316;55.976;37.140;2023-03-01T11:13:58;2.63;;;1.00;;
40609;SDS011;26316;55.976;37.140;2023-03-01T11:16:31;4.10;;;1.05;;
40609;SDS011;26316;55.976;37.140;2023-03-01T11:19:07;1.83;;;0.77;;
40609;SDS011;26316;55.976;37.140;2023-03-01T11:24:12;2.42;;;0.90;;
40609;SDS011;26316;55.976;37.140;2023-03-01T11:26:39;2.75;;;1.08;;
40609;SDS011;26316;55.976;37.140;2023-03-01T11:29:11;1.80;;;0.82;;
40609;SDS011;26316;55.976;37.140;2023-03-01T11:31:50;3.67;;;0.85;;
40609;SDS011;26316;55.976;37.140;2023-03-01T11:34:20;3.92;;;0.95;;
40609;SDS011;26316;55.976;37.140;2023-03-01T11:36:54;1.90;;;1.02;;
40609;SDS011;26316;55.976;37.140;2023-03-01T11:42:00;2.45;;;1.17;;
40609;SDS011;26316;55.976;37.140;2023-03-01T11:44:29;2.30;;;1.00;;
40609;SDS011;26316;55.976;37.140;2023-03-01T12:12:11;0.80;;;0.68;;
40609;SDS011;26316;55.976;37.140;2023-03-01T12:15:01;2.03;;;1.17;;
40609;SDS011;26316;55.976;37.140;2023-03-01T12:25:48;3.38;;;0.80;;
40609;SDS011;26316;55.976;37.140;2023-03-01T12:31:15;3.60;;;1.20;;
40609;SDS011;26316;55.976;37.140;2023-03-01T12:33:55;1.27;;;0.95;;
40609;SDS011;26316;55.976;37.140;2023-03-01T12:36:31;3.58;;;1.15;;
40609;SDS011;26316;55.976;37.140;2023-03-01T12:52:46;3.13;;;1.10;;
40609;SDS011;26316;55.976;37.140;2023-03-01T12:58:05;2.95;;;1.00;;
40609;SDS011;26316;55.976;37.140;2023-03-01T13:00:52;1.20;;;1.00;;
40609;SDS011;26316;55.976;37.140;2023-03-01T13:03:26;2.97;;;0.90;;
40609;SDS011;26316;55.976;37.140;2023-03-01T13:06:14;1.90;;;1.20;;
40609;SDS011;26316;55.976;37.140;2023-03-01T13:11:18;2.83;;;1.40;;
40609;SDS011;26316;55.976;37.140;2023-03-01T13:13:46;2.08;;;1.23;;
40609;SDS011;26316;55.976;37.140;2023-03-01T13:19:15;2.80;;;1.08;;
40609;SDS011;26316;55.976;37.140;2023-03-01T13:21:44;2.70;;;1.30;;
40609;SDS011;26316;55.976;37.140;2023-03-01T13:24:26;2.50;;;1.40;;
40609;SDS011;26316;55.976;37.140;2023-03-01T13:29:53;2.42;;;0.93;;
40609;SDS011;26316;55.976;37.140;2023-03-01T13:32:22;3.45;;;1.60;;
40609;SDS011;26316;55.976;37.140;2023-03-01T13:34:57;3.17;;;1.83;;
40609;SDS011;26316;55.976;37.140;2023-03-01T13:37:28;4.65;;;1.60;;
40609;SDS011;26316;55.976;37.140;2023-03-01T13:40:03;2.15;;;1.60;;
40609;SDS011;26316;55.976;37.140;2023-03-01T13:42:34;4.15;;;1.00;;
40609;SDS011;26316;55.976;37.140;2023-03-01T13:45:12;5.25;;;1.40;;
40609;SDS011;26316;55.976;37.140;2023-03-01T13:47:48;2.28;;;1.10;;
40609;SDS011;26316;55.976;37.140;2023-03-01T13:50:16;3.53;;;1.23;;
40609;SDS011;26316;55.976;37.140;2023-03-01T13:52:47;3.50;;;1.50;;
40609;SDS011;26316;55.976;37.140;2023-03-01T13:57:41;2.20;;;0.93;;
40609;SDS011;26316;55.976;37.140;2023-03-01T14:00:25;2.50;;;1.10;;
40609;SDS011;26316;55.976;37.140;2023-03-01T14:03:04;1.52;;;1.00;;
40609;SDS011;26316;55.976;37.140;2023-03-01T14:05:34;4.30;;;1.75;;
40609;SDS011;26316;55.976;37.140;2023-03-01T14:08:05;3.83;;;1.45;;
40609;SDS011;26316;55.976;37.140;2023-03-01T14:11:26;2.70;;;1.00;;
40609;SDS011;26316;55.976;37.140;2023-03-01T14:16:38;3.10;;;1.30;;
40609;SDS011;26316;55.976;37.140;2023-03-01T14:19:17;3.35;;;0.90;;
40609;SDS011;26316;55.976;37.140;2023-03-01T14:21:46;3.08;;;1.02;;
40609;SDS011;26316;55.976;37.140;2023-03-01T14:24:20;1.33;;;1.02;;
40609;SDS011;26316;55.976;37.140;2023-03-01T14:26:47;4.15;;;1.35;;
40609;SDS011;26316;55.976;37.140;2023-03-01T14:32:24;2.60;;;1.08;;
40609;SDS011;26316;55.976;37.140;2023-03-01T14:34:51;3.78;;;1.23;;
40609;SDS011;26316;55.976;37.140;2023-03-01T14:37:21;2.40;;;1.23;;
40609;SDS011;26316;55.976;37.140;2023-03-01T14:39:52;3.00;;;1.15;;
40609;SDS011;26316;55.976;37.140;2023-03-01T14:42:18;2.35;;;1.17;;
40609;SDS011;26316;55.976;37.140;2023-03-01T14:44:47;4.30;;;1.27;;
40609;SDS011;26316;55.976;37.140;2023-03-01T14:47:14;2.60;;;0.93;;
40609;SDS011;26316;55.976;37.140;2023-03-01T14:49:44;1.83;;;1.00;;
40609;SDS011;26316;55.976;37.140;2023-03-01T14:52:20;2.08;;;1.13;;
40609;SDS011;26316;55.976;37.140;2023-03-01T14:54:48;2.88;;;1.00;;
40609;SDS011;26316;55.976;37.140;2023-03-01T14:57:16;3.85;;;1.27;;
40609;SDS011;26316;55.976;37.140;2023-03-01T14:59:44;2.10;;;0.98;;
40609;SDS011;26316;55.976;37.140;2023-03-01T15:02:23;2.25;;;0.90;;
40609;SDS011;26316;55.976;37.140;2023-03-01T15:04:51;2.42;;;1.00;;
40609;SDS011;26316;55.976;37.140;2023-03-01T15:07:18;1.77;;;0.93;;
40609;SDS011;26316;55.976;37.140;2023-03-01T15:09:44;1.80;;;0.90;;
40609;SDS011;26316;55.976;37.140;2023-03-01T15:14:57;2.42;;;1.00;;
40609;SDS011;26316;55.976;37.140;2023-03-01T15:17:29;1.75;;;0.82;;
40609;SDS011;26316;55.976;37.140;2023-03-01T15:19:57;2.25;;;0.90;;
40609;SDS011;26316;55.976;37.140;2023-03-01T15:22:24;2.42;;;1.02;;
40609;SDS011;26316;55.976;37.140;2023-03-01T15:24:51;1.08;;;0.80;;
40609;SDS011;26316;55.976;37.140;2023-03-01T15:27:21;2.72;;;0.90;;
40609;SDS011;26316;55.976;37.140;2023-03-01T15:29:52;2.42;;;0.80;;
40609;SDS011;26316;55.976;37.140;2023-03-01T15:34:59;4.25;;;1.00;;
40609;SDS011;26316;55.976;37.140;2023-03-01T15:37:45;2.35;;;1.00;;
40609;SDS011;26316;55.976;37.140;2023-03-01T15:43:04;1.75;;;0.80;;
40609;SDS011;26316;55.976;37.140;2023-03-01T15:45:30;2.90;;;1.73;;
40609;SDS011;26316;55.976;37.140;2023-03-01T15:48:03;1.58;;;0.80;;
40609;SDS011;26316;55.976;37.140;2023-03-01T15:50:31;1.77;;;0.88;;
40609;SDS011;26316;55.976;37.140;2023-03-01T15:52:59;3.75;;;1.00;;
40609;SDS011;26316;55.976;37.140;2023-03-01T15:55:27;2.13;;;0.98;;
40609;SDS011;26316;55.976;37.140;2023-03-01T15:58:13;1.77;;;0.90;;
40609;SDS011;26316;55.976;37.140;2023-03-01T16:00:39;1.67;;;1.10;;
40609;SDS011;26316;55.976;37.140;2023-03-01T16:03:05;2.38;;;1.38;;
40609;SDS011;26316;55.976;37.140;2023-03-01T16:05:32;2.15;;;1.00;;
40609;SDS011;26316;55.976;37.140;2023-03-01T16:10:28;2.63;;;1.00;;
40609;SDS011;26316;55.976;37.140;2023-03-01T16:12:54;1.70;;;1.00;;
40609;SDS011;26316;55.976;37.140;2023-03-01T16:15:20;4.18;;;1.13;;
40609;SDS011;26316;55.976;37.140;2023-03-01T16:17:47;1.73;;;1.00;;
40609;SDS011;26316;55.976;37.140;2023-03-01T16:20:21;1.75;;;0.88;;
40609;SDS011;26316;55.976;37.140;2023-03-01T16:22:48;3.67;;;1.17;;
40609;SDS011;26316;55.976;37.140;2023-03-01T16:25:14;2.05;;;0.95;;
40609;SDS011;26316;55.976;37.140;2023-03-01T16:27:42;2.60;;;0.90;;
40609;SDS011;26316;55.976;37.140;2023-03-01T16:30:08;3.00;;;1.05;;
40609;SDS011;26316;55.976;37.140;2023-03-01T16:32:41;1.98;;;0.85;;
40609;SDS011;26316;55.976;37.140;2023-03-01T16:35:08;3.33;;;1.02;;
40609;SDS011;26316;55.976;37.140;2023-03-01T16:37:35;2.20;;;0.80;;
40609;SDS011;26316;55.976;37.140;2023-03-01T16:40:01;2.80;;;1.20;;
40609;SDS011;26316;55.976;37.140;2023-03-01T16:42:34;2.28;;;1.30;;
40609;SDS011;26316;55.976;37.140;2023-03-01T16:45:05;2.20;;;0.85;;
40609;SDS011;26316;55.976;37.140;2023-03-01T16:47:33;1.88;;;0.85;;
40609;SDS011;26316;55.976;37.140;2023-03-01T16:49:59;3.15;;;0.85;;